Time;durP1;ratioP1;P1;durP2;ratioP2;P2;SDS_P1;SDS_P2;PMS_P1;PMS_P2;Temp;Humidity;BMP_temperature;BMP_pressure;BME280_temperature;BME280_humidity;BME280_pressure;Samples;Min_cycle;Max_cycle;Signal;HPM_P1;HPM_P2
2021/08/29 00:03:30;;;;;;;9.52;5.18;;;;;;;;;;8217539;28;20046;-74
2021/08/29 00:07:35;;;;;;;11.68;5.63;;;;;;;;;;8198654;28;20483;-74
2021/08/29 00:11:41;;;;;;;12.00;5.43;;;;;;;;;;8192847;28;20069;-74
2021/08/29 00:15:46;;;;;;;12.32;5.68;;;;;;;;;;8193160;28;20049;-75
2021/08/29 00:19:51;;;;;;;10.82;5.60;;;;;;;;;;8193389;28;20734;-74
2021/08/29 00:23:57;;;;;;;21.63;5.47;;;;;;;;;;8194578;28;20547;-74
2021/08/29 00:28:03;;;;;;;8.65;5.05;;;;;;;;;;8193294;28;20468;-74
2021/08/29 00:32:08;;;;;;;11.73;5.65;;;;;;;;;;8176240;28;20384;-74
2021/08/29 00:36:13;;;;;;;11.85;5.10;;;;;;;;;;8192559;28;20038;-74
2021/08/29 00:40:20;;;;;;;11.95;5.50;;;;;;;;;;8206759;28;20491;-74
2021/08/29 00:44:26;;;;;;;8.98;5.03;;;;;;;;;;8194049;28;20475;-74
2021/08/29 00:48:31;;;;;;;9.00;5.28;;;;;;;;;;8181469;28;20473;-74
2021/08/29 00:52:42;;;;;;;9.45;4.82;;;;;;;;;;8196071;28;20445;-74
2021/08/29 00:56:48;;;;;;;8.93;4.88;;;;;;;;;;8196892;28;20481;-74
2021/08/29 01:00:56;;;;;;;9.63;4.10;;;;;;;;;;8181114;28;20468;-74
2021/08/29 01:05:14;;;;;;;9.57;4.78;;;;;;;;;;8183332;28;20460;-74
2021/08/29 01:09:39;;;;;;;9.00;4.53;;;;;;;;;;8209143;28;20066;-75
2021/08/29 01:13:48;;;;;;;12.65;4.40;;;;;;;;;;8213374;28;20457;-74
2021/08/29 01:17:57;;;;;;;11.80;4.30;;;;;;;;;;8181309;28;20357;-74
2021/08/29 01:22:03;;;;;;;8.68;4.18;;;;;;;;;;8180563;28;20420;-74
2021/08/29 01:26:25;;;;;;;7.80;4.50;;;;;;;;;;8182032;28;20345;-74
2021/08/29 01:30:31;;;;;;;7.18;3.90;;;;;;;;;;8165948;28;20453;-74
2021/08/29 01:34:37;;;;;;;9.93;3.47;;;;;;;;;;8181621;28;20380;-74
2021/08/29 01:39:07;;;;;;;9.40;4.00;;;;;;;;;;8197042;28;20342;-74
2021/08/29 01:43:13;;;;;;;7.13;3.95;;;;;;;;;;8197071;28;20050;-74
2021/08/29 01:47:19;;;;;;;6.10;3.47;;;;;;;;;;8199026;28;20452;-74
2021/08/29 01:51:24;;;;;;;9.13;3.90;;;;;;;;;;8181048;28;20328;-73
2021/08/29 01:55:34;;;;;;;7.85;4.03;;;;;;;;;;8211206;28;20345;-74
2021/08/29 01:59:46;;;;;;;4.95;3.28;;;;;;;;;;8213134;28;20540;-73
2021/08/29 02:03:51;;;;;;;5.78;3.70;;;;;;;;;;8162883;28;20380;-74
2021/08/29 02:08:01;;;;;;;6.97;4.65;;;;;;;;;;8193316;28;20061;-75
2021/08/29 02:12:12;;;;;;;8.00;4.53;;;;;;;;;;8196339;28;20511;-74
2021/08/29 02:16:22;;;;;;;5.77;3.40;;;;;;;;;;8162447;28;20045;-74
2021/08/29 02:20:29;;;;;;;9.38;3.35;;;;;;;;;;8195415;28;20772;-74
2021/08/29 02:24:34;;;;;;;5.95;3.60;;;;;;;;;;8178660;28;20503;-74
2021/08/29 02:28:44;;;;;;;5.47;3.30;;;;;;;;;;8194948;28;20403;-74
2021/08/29 02:32:54;;;;;;;5.35;3.30;;;;;;;;;;8178138;28;20372;-74
2021/08/29 02:37:04;;;;;;;6.00;3.08;;;;;;;;;;8178864;28;20476;-74
2021/08/29 02:41:23;;;;;;;5.35;3.70;;;;;;;;;;8164173;28;20057;-74
2021/08/29 02:45:32;;;;;;;6.55;3.40;;;;;;;;;;8178129;28;20468;-74
2021/08/29 02:49:40;;;;;;;7.23;3.77;;;;;;;;;;8177661;28;20077;-74
2021/08/29 02:53:46;;;;;;;9.18;3.92;;;;;;;;;;8177923;28;20065;-74
2021/08/29 02:58:03;;;;;;;9.13;3.97;;;;;;;;;;8193328;28;20503;-74
2021/08/29 03:02:31;;;;;;;5.90;3.78;;;;;;;;;;8164608;28;20567;-74
2021/08/29 03:06:37;;;;;;;7.82;4.43;;;;;;;;;;8176226;28;20376;-74
2021/08/29 03:10:43;;;;;;;11.52;5.63;;;;;;;;;;8177043;28;20468;-73
2021/08/29 03:14:49;;;;;;;9.23;3.97;;;;;;;;;;8161597;28;20329;-74
2021/08/29 03:18:58;;;;;;;10.82;4.00;;;;;;;;;;8193569;28;20452;-74
2021/08/29 03:23:12;;;;;;;11.15;4.88;;;;;;;;;;8161803;28;20384;-74
2021/08/29 03:27:18;;;;;;;10.43;4.53;;;;;;;;;;8208330;28;20338;-74
2021/08/29 03:31:23;;;;;;;8.13;4.35;;;;;;;;;;8191799;28;20068;-74
2021/08/29 03:35:31;;;;;;;11.57;4.82;;;;;;;;;;8209200;28;20049;-74
2021/08/29 03:39:38;;;;;;;;;;;;;;;;;;8177825;28;20468;-74
2021/08/29 03:43:43;;;;;;;7.50;3.72;;;;;;;;;;8176685;28;20535;-74
2021/08/29 03:47:49;;;;;;;8.65;4.32;;;;;;;;;;8176347;28;20499;-74
2021/08/29 03:51:58;;;;;;;7.80;4.10;;;;;;;;;;8193169;28;20627;-74
2021/08/29 03:56:12;;;;;;;9.65;3.88;;;;;;;;;;8191883;28;20349;-74
2021/08/29 04:00:18;;;;;;;6.00;3.10;;;;;;;;;;8175277;28;20473;-74
2021/08/29 04:04:34;;;;;;;5.32;3.63;;;;;;;;;;8191231;28;20531;-74
2021/08/29 04:08:49;;;;;;;6.95;3.75;;;;;;;;;;8192768;28;20370;-74
2021/08/29 04:12:54;;;;;;;6.60;3.30;;;;;;;;;;8193353;28;20457;-74
2021/08/29 04:17:18;;;;;;;9.00;3.22;;;;;;;;;;8178319;28;20372;-74
2021/08/29 04:21:33;;;;;;;7.13;3.42;;;;;;;;;;8174768;28;20487;-74
2021/08/29 04:25:40;;;;;;;7.68;3.90;;;;;;;;;;8159612;28;20161;-74
2021/08/29 04:29:45;;;;;;;6.03;3.60;;;;;;;;;;8176189;28;20042;-74
2021/08/29 04:33:52;;;;;;;5.55;3.28;;;;;;;;;;8174321;28;20067;-74
2021/08/29 04:38:20;;;;;;;8.00;4.20;;;;;;;;;;8191401;28;20488;-74
2021/08/29 04:42:25;;;;;;;5.13;3.05;;;;;;;;;;8158847;28;20372;-74
2021/08/29 04:46:31;;;;;;;4.40;2.72;;;;;;;;;;8157831;28;20372;-75
2021/08/29 04:50:36;;;;;;;8.25;3.70;;;;;;;;;;8190890;28;20372;-74
2021/08/29 04:54:42;;;;;;;8.65;3.63;;;;;;;;;;8175108;28;20456;-74
2021/08/29 04:58:49;;;;;;;7.57;3.60;;;;;;;;;;8144553;28;20353;-74
2021/08/29 05:02:54;;;;;;;12.60;4.15;;;;;;;;;;8207645;28;20471;-74
2021/08/29 05:07:00;;;;;;;7.38;3.80;;;;;;;;;;8158669;28;20465;-74
2021/08/29 05:11:08;;;;;;;8.70;4.25;;;;;;;;;;8173947;28;20354;-74
2021/08/29 05:15:13;;;;;;;9.05;4.28;;;;;;;;;;8192127;28;20484;-74
2021/08/29 05:19:19;;;;;;;7.13;4.40;;;;;;;;;;8173955;28;20361;-73
2021/08/29 05:23:33;;;;;;;8.40;4.15;;;;;;;;;;8174660;28;20050;-73
2021/08/29 05:28:01;;;;;;;6.30;4.13;;;;;;;;;;8174353;28;20045;-73
2021/08/29 05:32:07;;;;;;;7.03;4.20;;;;;;;;;;8162773;28;20477;-73
2021/08/29 05:36:16;;;;;;;6.03;4.10;;;;;;;;;;8179676;28;20061;-75
2021/08/29 05:40:22;;;;;;;8.57;4.90;;;;;;;;;;8148450;28;20373;-74
2021/08/29 05:44:46;;;;;;;9.25;4.70;;;;;;;;;;8197414;28;20460;-73
2021/08/29 05:48:51;;;;;;;6.85;3.95;;;;;;;;;;8211750;28;20068;-75
2021/08/29 05:52:57;;;;;;;7.85;4.60;;;;;;;;;;8194826;28;20472;-74
2021/08/29 05:57:02;;;;;;;8.90;4.95;;;;;;;;;;8197921;28;20408;-74
2021/08/29 06:01:11;;;;;;;7.57;4.40;;;;;;;;;;8196093;28;20461;-73
2021/08/29 06:05:19;;;;;;;8.07;5.05;;;;;;;;;;8195378;28;20484;-74
2021/08/29 06:09:38;;;;;;;9.10;6.05;;;;;;;;;;8166228;28;20046;-74
2021/08/29 06:13:44;;;;;;;8.50;4.78;;;;;;;;;;8212476;28;20480;-73
2021/08/29 06:17:52;;;;;;;6.65;4.63;;;;;;;;;;8211547;28;20460;-74
2021/08/29 06:21:57;;;;;;;7.22;4.22;;;;;;;;;;8179947;28;20042;-74
2021/08/29 06:26:01;;;;;;;8.00;5.47;;;;;;;;;;8196417;28;20053;-74
2021/08/29 06:30:25;;;;;;;8.65;4.38;;;;;;;;;;8181264;28;20072;-73
2021/08/29 06:34:57;;;;;;;6.07;3.90;;;;;;;;;;8196404;28;20567;-73
2021/08/29 06:39:08;;;;;;;5.88;3.35;;;;;;;;;;8210542;28;20457;-74
2021/08/29 06:43:14;;;;;;;5.88;3.58;;;;;;;;;;8195771;28;20346;-73
2021/08/29 06:47:22;;;;;;;;;;;;;;;;;;8180386;28;20472;-74
2021/08/29 06:51:53;;;;;;;7.65;4.35;;;;;;;;;;8197944;28;20252;-73
2021/08/29 06:56:19;;;;;;;8.18;3.95;;;;;;;;;;8195118;28;20038;-74
2021/08/29 07:00:29;;;;;;;10.43;4.15;;;;;;;;;;8208630;28;20050;-73
2021/08/29 07:04:38;;;;;;;6.93;4.40;;;;;;;;;;8177368;28;20395;-75
2021/08/29 07:08:45;;;;;;;5.57;4.07;;;;;;;;;;8177876;28;20068;-74
2021/08/29 07:12:50;;;;;;;8.50;4.30;;;;;;;;;;8177769;28;20349;-74
2021/08/29 07:17:04;;;;;;;8.95;4.78;;;;;;;;;;8194826;28;20499;-75
2021/08/29 07:21:10;;;;;;;9.32;4.82;;;;;;;;;;8192103;28;20468;-74
2021/08/29 07:25:38;;;;;;;6.63;4.22;;;;;;;;;;8193044;28;20053;-74
2021/08/29 07:30:13;;;;;;;6.53;4.03;;;;;;;;;;8140610;28;20053;-74
2021/08/29 07:34:27;;;;;;;8.70;4.50;;;;;;;;;;8192314;28;20099;-74
2021/08/29 07:38:50;;;;;;;5.00;3.53;;;;;;;;;;8195713;28;20437;-75
2021/08/29 07:42:56;;;;;;;6.63;4.22;;;;;;;;;;8194387;28;20034;-74
2021/08/29 07:47:01;;;;;;;6.32;3.70;;;;;;;;;;8176693;28;20068;-74
2021/08/29 07:51:08;;;;;;;6.35;3.85;;;;;;;;;;8191996;28;20334;-75
2021/08/29 07:55:43;;;;;;;7.38;4.18;;;;;;;;;;8124639;28;20371;-74
2021/08/29 07:59:55;;;;;;;14.65;4.18;;;;;;;;;;8176379;28;20068;-74
2021/08/29 08:04:00;;;;;;;6.40;4.00;;;;;;;;;;8192667;28;20480;-75
2021/08/29 08:08:26;;;;;;;7.65;3.90;;;;;;;;;;8178871;28;20498;-75
2021/08/29 08:12:49;;;;;;;6.20;3.92;;;;;;;;;;8194046;28;20034;-75
2021/08/29 08:16:55;;;;;;;6.65;3.35;;;;;;;;;;8176612;28;20460;-74
2021/08/29 08:21:04;;;;;;;5.18;3.05;;;;;;;;;;8175517;28;20360;-74
2021/08/29 08:25:21;;;;;;;3.72;2.63;;;;;;;;;;8191445;28;20368;-74
2021/08/29 08:29:49;;;;;;;;;;;;;;;;;;8192138;28;20377;-74
2021/08/29 08:34:23;;;;;;;3.25;2.00;;;;;;;;;;8155535;28;19921;-74
2021/08/29 08:38:42;;;;;;;7.63;3.08;;;;;;;;;;8207829;28;20476;-74
2021/08/29 08:43:13;;;;;;;6.55;2.53;;;;;;;;;;8200643;28;20449;-74
2021/08/29 08:47:38;;;;;;;8.45;2.40;;;;;;;;;;8191907;28;20391;-75
2021/08/29 08:52:12;;;;;;;12.57;6.05;;;;;;;;;;8191546;28;20346;-74
2021/08/29 08:56:35;;;;;;;4.85;2.85;;;;;;;;;;8202139;28;20460;-74
2021/08/29 09:01:04;;;;;;;4.90;2.78;;;;;;;;;;8190328;28;20366;-74
2021/08/29 09:05:30;;;;;;;3.75;2.63;;;;;;;;;;8208476;28;20384;-75
2021/08/29 09:09:48;;;;;;;6.90;2.30;;;;;;;;;;8198056;28;20060;-75
2021/08/29 09:13:56;;;;;;;4.63;2.13;;;;;;;;;;8228618;28;20367;-74
2021/08/29 09:18:01;;;;;;;4.78;2.45;;;;;;;;;;8212077;28;20380;-75
2021/08/29 09:22:07;;;;;;;4.85;2.05;;;;;;;;;;8195413;28;20506;-75
2021/08/29 09:26:12;;;;;;;2.92;1.70;;;;;;;;;;8210620;28;20030;-75
2021/08/29 09:30:24;;;;;;;2.90;1.67;;;;;;;;;;8192518;28;20104;-75
2021/08/29 09:34:29;;;;;;;2.70;1.60;;;;;;;;;;8210986;28;20038;-76
2021/08/29 09:38:43;;;;;;;2.08;1.23;;;;;;;;;;8195573;28;20530;-74
2021/08/29 09:42:53;;;;;;;2.70;1.77;;;;;;;;;;8179626;28;20348;-74
2021/08/29 09:47:05;;;;;;;4.00;2.00;;;;;;;;;;8211232;28;20452;-74
2021/08/29 09:51:28;;;;;;;3.08;1.85;;;;;;;;;;8194535;28;20050;-74
2021/08/29 09:55:43;;;;;;;3.55;1.98;;;;;;;;;;8209677;28;20479;-74
2021/08/29 10:00:10;;;;;;;4.15;2.10;;;;;;;;;;8179054;28;20460;-74
2021/08/29 10:04:20;;;;;;;3.83;1.98;;;;;;;;;;8210913;28;20397;-74
2021/08/29 10:08:45;;;;;;;6.22;2.28;;;;;;;;;;8196025;28;20457;-74
2021/08/29 10:12:59;;;;;;;3.20;2.03;;;;;;;;;;8211221;28;20491;-74
2021/08/29 10:17:06;;;;;;;2.70;1.75;;;;;;;;;;8194722;28;20357;-74
2021/08/29 10:21:46;;;;;;;3.95;1.88;;;;;;;;;;8195187;28;20042;-75
2021/08/29 10:25:51;;;;;;;9.45;1.80;;;;;;;;;;8162100;28;20368;-74
2021/08/29 10:30:16;;;;;;;3.55;2.10;;;;;;;;;;8184197;28;20440;-74
2021/08/29 10:34:57;;;;;;;4.13;2.40;;;;;;;;;;8129693;28;20384;-74
2021/08/29 10:39:02;;;;;;;5.25;2.38;;;;;;;;;;8166097;28;20487;-74
2021/08/29 10:43:28;;;;;;;5.53;1.95;;;;;;;;;;8187760;28;20360;-74
2021/08/29 10:48:11;;;;;;;10.63;1.90;;;;;;;;;;8168119;28;20523;-74
2021/08/29 10:52:36;;;;;;;3.35;2.17;;;;;;;;;;8208530;28;20506;-74
2021/08/29 10:56:41;;;;;;;3.92;2.10;;;;;;;;;;8194683;28;20456;-74
2021/08/29 11:00:51;;;;;;;2.70;1.52;;;;;;;;;;8190326;28;20384;-73
2021/08/29 11:05:35;;;;;;;3.20;1.70;;;;;;;;;;8193138;28;20596;-74
2021/08/29 11:09:43;;;;;;;4.75;1.48;;;;;;;;;;8186256;28;20500;-74
2021/08/29 11:13:49;;;;;;;4.05;1.80;;;;;;;;;;8225167;28;20489;-73
2021/08/29 11:18:01;;;;;;;5.65;1.45;;;;;;;;;;8207808;28;20472;-73
2021/08/29 11:22:27;;;;;;;3.13;1.75;;;;;;;;;;8204171;28;20354;-73
2021/08/29 11:26:51;;;;;;;2.97;1.90;;;;;;;;;;8178725;28;20034;-74
2021/08/29 11:31:54;;;;;;;3.38;1.83;;;;;;;;;;8191421;28;20473;-74
2021/08/29 11:36:05;;;;;;;2.72;1.70;;;;;;;;;;8174233;28;20445;-75
2021/08/29 11:41:00;;;;;;;2.85;1.73;;;;;;;;;;8189369;28;21720;-73
2021/08/29 11:45:13;;;;;;;3.50;2.10;;;;;;;;;;8208794;28;20324;-74
2021/08/29 11:49:22;;;;;;;3.05;1.67;;;;;;;;;;8193496;28;20483;-73
2021/08/29 11:53:49;;;;;;;3.72;2.28;;;;;;;;;;8207262;28;20396;-74
2021/08/29 11:57:56;;;;;;;3.20;1.85;;;;;;;;;;8207916;28;20468;-73
2021/08/29 12:02:10;;;;;;;2.88;1.75;;;;;;;;;;8160054;28;20381;-74
2021/08/29 12:06:53;;;;;;;2.40;1.65;;;;;;;;;;8207554;28;20407;-73
2021/08/29 12:11:40;;;;;;;2.40;1.50;;;;;;;;;;8071809;29;20074;-73
2021/08/29 12:16:05;;;;;;;2.63;1.30;;;;;;;;;;8134574;28;20411;-73
2021/08/29 12:26:11;;;;;;;2.95;1.23;;;;;;;;;;8171035;28;20050;-73
2021/08/29 12:30:20;;;;;;;2.03;1.40;;;;;;;;;;8171911;28;20373;-73
2021/08/29 12:34:27;;;;;;;1.50;1.17;;;;;;;;;;8143908;28;20479;-74
2021/08/29 12:38:33;;;;;;;2.40;1.13;;;;;;;;;;8160362;28;20073;-73
2021/08/29 12:42:44;;;;;;;3.45;1.38;;;;;;;;;;8166030;28;20365;-73
2021/08/29 12:47:09;;;;;;;2.75;1.45;;;;;;;;;;8180392;28;20471;-73
2021/08/29 12:51:15;;;;;;;4.97;1.25;;;;;;;;;;8176114;28;20461;-73
2021/08/29 12:55:23;;;;;;;1.83;1.20;;;;;;;;;;8153108;28;20042;-73
2021/08/29 12:59:29;;;;;;;1.10;0.93;;;;;;;;;;8184195;28;20461;-73
2021/08/29 13:03:51;;;;;;;2.10;1.00;;;;;;;;;;8147620;28;20476;-73
2021/08/29 13:07:57;;;;;;;2.45;1.35;;;;;;;;;;8166113;28;20457;-73
2021/08/29 13:12:03;;;;;;;1.90;1.15;;;;;;;;;;8165581;28;20046;-73
2021/08/29 13:16:12;;;;;;;3.70;2.25;;;;;;;;;;8165368;28;20065;-73
2021/08/29 13:20:18;;;;;;;4.68;1.70;;;;;;;;;;8148592;28;20068;-73
2021/08/29 13:24:28;;;;;;;2.28;1.20;;;;;;;;;;8186097;28;20054;-74
2021/08/29 13:28:33;;;;;;;2.53;1.70;;;;;;;;;;8197053;28;20371;-74
2021/08/29 13:32:41;;;;;;;2.78;1.42;;;;;;;;;;8196694;28;20364;-73
2021/08/29 13:36:49;;;;;;;3.33;1.85;;;;;;;;;;8198060;28;20467;-74
2021/08/29 13:40:55;;;;;;;2.28;1.25;;;;;;;;;;8210909;28;20364;-74
2021/08/29 13:45:00;;;;;;;2.30;1.50;;;;;;;;;;8196823;28;20376;-73
2021/08/29 13:49:06;;;;;;;2.25;1.38;;;;;;;;;;8197503;28;20487;-73
2021/08/29 13:53:12;;;;;;;2.50;1.10;;;;;;;;;;8195185;28;20352;-73
2021/08/29 13:57:16;;;;;;;2.50;1.40;;;;;;;;;;8212410;28;20472;-74
2021/08/29 14:01:21;;;;;;;3.30;1.55;;;;;;;;;;8194092;28;20357;-73
2021/08/29 14:05:27;;;;;;;2.78;1.75;;;;;;;;;;8197694;28;20451;-74
2021/08/29 14:09:31;;;;;;;3.42;1.58;;;;;;;;;;8209615;28;20453;-73
2021/08/29 14:13:35;;;;;;;3.08;1.83;;;;;;;;;;8196357;28;20322;-73
2021/08/29 14:17:39;;;;;;;3.55;1.75;;;;;;;;;;8196292;28;20494;-73
2021/08/29 14:21:44;;;;;;;2.33;1.40;;;;;;;;;;8194467;28;20306;-73
2021/08/29 14:25:48;;;;;;;1.42;1.23;;;;;;;;;;8215073;28;20464;-74
2021/08/29 14:29:53;;;;;;;3.90;1.70;;;;;;;;;;8226746;28;20483;-73
2021/08/29 14:33:59;;;;;;;5.05;1.50;;;;;;;;;;8228367;28;20049;-73
2021/08/29 14:38:04;;;;;;;2.50;1.67;;;;;;;;;;8241496;28;20475;-73
2021/08/29 14:42:10;;;;;;;3.55;1.52;;;;;;;;;;8241927;28;20075;-74
2021/08/29 14:46:15;;;;;;;2.05;1.27;;;;;;;;;;8228225;28;20037;-73
2021/08/29 14:50:22;;;;;;;2.30;1.50;;;;;;;;;;8228551;28;20472;-73
2021/08/29 14:54:35;;;;;;;1.98;1.50;;;;;;;;;;8240970;28;20463;-73
2021/08/29 14:58:40;;;;;;;3.35;1.70;;;;;;;;;;8215495;28;20371;-73
2021/08/29 15:02:45;;;;;;;3.83;1.25;;;;;;;;;;8207835;28;20469;-74
2021/08/29 15:06:49;;;;;;;3.88;1.88;;;;;;;;;;8207928;28;20033;-73
2021/08/29 15:10:55;;;;;;;2.15;1.52;;;;;;;;;;8217616;28;20371;-73
2021/08/29 15:14:59;;;;;;;1.40;1.20;;;;;;;;;;8211444;28;20471;-73
2021/08/29 15:19:04;;;;;;;3.70;1.60;;;;;;;;;;8209276;28;20465;-73
2021/08/29 15:23:09;;;;;;;4.32;2.10;;;;;;;;;;8224765;28;20357;-73
2021/08/29 15:27:14;;;;;;;3.50;2.03;;;;;;;;;;8191830;28;20045;-73
2021/08/29 15:31:20;;;;;;;5.10;2.75;;;;;;;;;;8224584;28;20492;-73
2021/08/29 15:35:26;;;;;;;5.72;2.95;;;;;;;;;;8208760;28;20388;-74
2021/08/29 15:39:38;;;;;;;10.15;4.85;;;;;;;;;;8226051;28;20483;-73
2021/08/29 15:43:44;;;;;;;3.13;2.17;;;;;;;;;;8192261;28;20567;-74
2021/08/29 15:47:49;;;;;;;3.40;2.13;;;;;;;;;;8192155;28;20392;-73
2021/08/29 15:51:54;;;;;;;2.40;2.03;;;;;;;;;;8225964;28;20468;-73
2021/08/29 15:56:00;;;;;;;3.40;2.00;;;;;;;;;;8225371;28;20060;-73
2021/08/29 16:00:06;;;;;;;2.70;1.90;;;;;;;;;;8190785;28;20480;-73
2021/08/29 16:04:15;;;;;;;3.42;2.55;;;;;;;;;;8225478;28;20041;-73
2021/08/29 16:08:20;;;;;;;4.18;2.78;;;;;;;;;;8207968;28;20357;-73
2021/08/29 16:12:27;;;;;;;5.88;2.70;;;;;;;;;;8226149;28;20061;-73
2021/08/29 16:16:33;;;;;;;4.85;2.55;;;;;;;;;;8207174;28;20392;-73
2021/08/29 16:20:40;;;;;;;5.05;2.72;;;;;;;;;;8225351;28;20353;-73
2021/08/29 16:24:45;;;;;;;3.17;2.00;;;;;;;;;;8206334;28;20368;-73
2021/08/29 16:28:52;;;;;;;3.97;1.90;;;;;;;;;;8224351;28;20489;-73
2021/08/29 16:32:57;;;;;;;3.67;2.13;;;;;;;;;;8224544;28;20575;-73
2021/08/29 16:37:03;;;;;;;10.70;3.10;;;;;;;;;;8206612;28;20481;-73
2021/08/29 16:41:09;;;;;;;4.95;2.70;;;;;;;;;;8207870;28;20633;-73
2021/08/29 16:45:15;;;;;;;3.38;2.22;;;;;;;;;;8191034;28;20436;-73
2021/08/29 16:49:20;;;;;;;18.73;8.65;;;;;;;;;;8225047;28;20456;-73
2021/08/29 16:53:25;;;;;;;10.77;4.30;;;;;;;;;;8224507;28;20072;-73
2021/08/29 16:57:31;;;;;;;10.23;3.67;;;;;;;;;;8224923;28;20377;-73
2021/08/29 17:01:37;;;;;;;4.43;2.97;;;;;;;;;;8205853;28;20407;-73
2021/08/29 17:05:42;;;;;;;5.25;2.72;;;;;;;;;;8224363;28;20357;-73
2021/08/29 17:09:48;;;;;;;5.15;2.67;;;;;;;;;;8224064;28;20498;-74
2021/08/29 17:13:53;;;;;;;4.13;2.90;;;;;;;;;;8224165;28;20350;-73
2021/08/29 17:17:58;;;;;;;4.30;2.75;;;;;;;;;;8226146;28;20368;-73
2021/08/29 17:22:03;;;;;;;4.35;2.88;;;;;;;;;;8206372;28;20472;-73
2021/08/29 17:26:09;;;;;;;4.80;2.75;;;;;;;;;;8207885;28;20512;-73
2021/08/29 17:30:15;;;;;;;5.65;2.85;;;;;;;;;;8229938;28;20484;-73
2021/08/29 17:34:20;;;;;;;6.47;2.80;;;;;;;;;;8228848;28;20507;-73
2021/08/29 17:38:28;;;;;;;5.90;2.83;;;;;;;;;;8230395;28;20306;-73
2021/08/29 17:42:32;;;;;;;4.72;2.17;;;;;;;;;;8211718;28;20463;-73
2021/08/29 17:46:41;;;;;;;4.00;2.50;;;;;;;;;;8211944;28;20045;-74
2021/08/29 17:50:50;;;;;;;7.10;2.80;;;;;;;;;;8213214;28;20441;-73
2021/08/29 17:54:55;;;;;;;8.30;3.47;;;;;;;;;;8211481;28;20386;-73
2021/08/29 17:59:00;;;;;;;27.90;13.32;;;;;;;;;;8211798;28;20514;-73
2021/08/29 18:03:06;;;;;;;32.05;16.42;;;;;;;;;;8230642;28;20368;-73
2021/08/29 18:07:11;;;;;;;19.92;10.48;;;;;;;;;;8212380;28;20388;-73
2021/08/29 18:11:16;;;;;;;19.95;7.35;;;;;;;;;;8211798;28;20472;-73
2021/08/29 18:15:21;;;;;;;4.65;3.45;;;;;;;;;;8231216;28;20356;-73
2021/08/29 18:19:27;;;;;;;13.77;5.68;;;;;;;;;;8228585;28;20080;-73
2021/08/29 18:23:34;;;;;;;14.95;6.63;;;;;;;;;;8211092;28;21780;-73
2021/08/29 18:27:41;;;;;;;14.48;7.25;;;;;;;;;;8228665;28;20388;-73
2021/08/29 18:31:46;;;;;;;26.57;11.97;;;;;;;;;;8229150;28;20050;-73
2021/08/29 18:35:53;;;;;;;15.35;8.32;;;;;;;;;;8212749;28;20771;-73
2021/08/29 18:39:59;;;;;;;11.90;6.07;;;;;;;;;;8211137;28;20367;-73
2021/08/29 18:44:05;;;;;;;13.27;6.80;;;;;;;;;;8228317;28;20049;-73
2021/08/29 18:48:11;;;;;;;10.93;5.50;;;;;;;;;;8227594;28;20348;-73
2021/08/29 18:52:16;;;;;;;12.60;6.18;;;;;;;;;;8228330;28;20376;-74
2021/08/29 18:56:22;;;;;;;15.90;7.43;;;;;;;;;;8227594;28;20408;-73
2021/08/29 19:00:27;;;;;;;8.45;4.05;;;;;;;;;;8227541;28;20041;-73
2021/08/29 19:04:33;;;;;;;8.77;4.13;;;;;;;;;;8194784;28;20072;-73
2021/08/29 19:08:38;;;;;;;10.48;5.22;;;;;;;;;;8227032;28;20408;-73
2021/08/29 19:12:47;;;;;;;12.65;6.28;;;;;;;;;;8227759;28;20460;-73
2021/08/29 19:16:53;;;;;;;13.60;8.43;;;;;;;;;;8193679;28;20486;-73
2021/08/29 19:20:58;;;;;;;14.75;6.50;;;;;;;;;;8192505;28;20069;-73
2021/08/29 19:25:04;;;;;;;7.28;5.00;;;;;;;;;;8208878;28;20473;-74
2021/08/29 19:29:09;;;;;;;10.48;4.38;;;;;;;;;;8209532;28;20049;-73
2021/08/29 19:33:14;;;;;;;7.05;4.13;;;;;;;;;;8210096;28;20041;-74
2021/08/29 19:37:20;;;;;;;6.05;3.38;;;;;;;;;;8226558;28;20334;-73
2021/08/29 19:41:25;;;;;;;5.10;3.20;;;;;;;;;;8208246;28;20067;-73
2021/08/29 19:45:30;;;;;;;7.82;3.97;;;;;;;;;;8227183;28;20049;-73
2021/08/29 19:49:35;;;;;;;7.63;3.90;;;;;;;;;;8224800;28;20429;-73
2021/08/29 19:53:41;;;;;;;7.43;3.58;;;;;;;;;;8227820;28;20480;-73
2021/08/29 19:58:05;;;;;;;5.05;3.55;;;;;;;;;;8192988;28;20041;-73
2021/08/29 20:02:11;;;;;;;8.20;3.67;;;;;;;;;;8228295;28;20072;-74
2021/08/29 20:06:16;;;;;;;9.13;5.40;;;;;;;;;;8224943;28;20498;-73
2021/08/29 20:10:21;;;;;;;11.05;6.43;;;;;;;;;;8207520;28;20377;-73
2021/08/29 20:14:26;;;;;;;13.95;5.60;;;;;;;;;;8225480;28;20368;-73
2021/08/29 20:18:31;;;;;;;8.35;5.32;;;;;;;;;;8207565;28;20376;-73
2021/08/29 20:22:36;;;;;;;9.10;5.00;;;;;;;;;;8226362;28;20416;-73
2021/08/29 20:26:41;;;;;;;7.30;4.43;;;;;;;;;;8207141;28;20477;-74
2021/08/29 20:30:46;;;;;;;5.82;3.97;;;;;;;;;;8188778;28;20054;-73
2021/08/29 20:34:52;;;;;;;10.10;5.45;;;;;;;;;;8215403;28;20470;-74
2021/08/29 20:38:58;;;;;;;9.13;4.90;;;;;;;;;;8192204;28;20353;-73
2021/08/29 20:43:03;;;;;;;5.57;3.40;;;;;;;;;;8190825;28;20503;-73
2021/08/29 20:47:09;;;;;;;6.32;3.50;;;;;;;;;;8207623;28;20045;-73
2021/08/29 20:51:14;;;;;;;9.00;4.28;;;;;;;;;;8225331;28;20352;-73
2021/08/29 20:55:19;;;;;;;8.35;3.35;;;;;;;;;;8206152;28;20354;-73
2021/08/29 20:59:25;;;;;;;6.97;3.35;;;;;;;;;;8207821;28;20444;-73
2021/08/29 21:03:30;;;;;;;5.10;3.22;;;;;;;;;;8213679;28;20379;-73
2021/08/29 21:07:36;;;;;;;4.78;3.72;;;;;;;;;;8230660;28;20049;-74
2021/08/29 21:11:41;;;;;;;10.68;5.22;;;;;;;;;;8230079;28;20341;-73
2021/08/29 21:15:46;;;;;;;7.93;3.60;;;;;;;;;;8212023;28;20064;-73
2021/08/29 21:19:51;;;;;;;7.10;3.60;;;;;;;;;;8213156;28;20495;-73
2021/08/29 21:23:59;;;;;;;5.85;3.38;;;;;;;;;;8230591;28;20479;-73
2021/08/29 21:28:04;;;;;;;6.10;3.42;;;;;;;;;;8231836;28;20083;-73
2021/08/29 21:32:09;;;;;;;8.75;3.28;;;;;;;;;;8229771;28;20042;-73
2021/08/29 21:36:14;;;;;;;6.72;3.00;;;;;;;;;;8229877;28;20375;-73
2021/08/29 21:40:20;;;;;;;3.83;2.70;;;;;;;;;;8232313;28;20329;-73
2021/08/29 21:44:25;;;;;;;8.45;3.28;;;;;;;;;;8229554;28;20461;-73
2021/08/29 21:48:30;;;;;;;4.03;2.38;;;;;;;;;;8197033;28;20331;-73
2021/08/29 21:52:35;;;;;;;10.75;3.60;;;;;;;;;;8229878;28;20380;-73
2021/08/29 21:56:41;;;;;;;3.00;2.28;;;;;;;;;;8212009;28;20349;-73
2021/08/29 22:00:48;;;;;;;4.10;2.28;;;;;;;;;;8229559;28;20037;-72
2021/08/29 22:04:55;;;;;;;6.22;4.03;;;;;;;;;;8211367;28;20392;-73
2021/08/29 22:09:00;;;;;;;5.57;3.95;;;;;;;;;;8229278;28;20456;-73
2021/08/29 22:13:06;;;;;;;14.23;5.18;;;;;;;;;;8211228;28;20495;-73
2021/08/29 22:17:11;;;;;;;8.68;4.55;;;;;;;;;;8228627;28;20354;-73
2021/08/29 22:21:18;;;;;;;7.20;4.32;;;;;;;;;;8229123;28;20349;-73
2021/08/29 22:25:24;;;;;;;7.97;4.53;;;;;;;;;;8211041;28;20468;-73
2021/08/29 22:29:29;;;;;;;7.32;4.68;;;;;;;;;;8230322;28;20436;-75
2021/08/29 22:33:34;;;;;;;6.82;4.22;;;;;;;;;;8230369;28;20367;-73
2021/08/29 22:37:40;;;;;;;9.82;5.75;;;;;;;;;;8228720;28;20302;-73
2021/08/29 22:41:45;;;;;;;7.20;4.57;;;;;;;;;;8210270;28;20392;-74
2021/08/29 22:45:50;;;;;;;11.20;5.95;;;;;;;;;;8227652;28;20388;-73
2021/08/29 22:49:55;;;;;;;10.60;5.35;;;;;;;;;;8229116;28;20418;-73
2021/08/29 22:54:00;;;;;;;8.25;5.15;;;;;;;;;;8228372;28;20050;-74
2021/08/29 22:58:05;;;;;;;13.25;4.97;;;;;;;;;;8211122;28;20444;-73
2021/08/29 23:02:10;;;;;;;9.82;5.80;;;;;;;;;;8205160;28;20468;-74
2021/08/29 23:06:16;;;;;;;8.30;5.93;;;;;;;;;;8209961;28;20364;-73
2021/08/29 23:10:21;;;;;;;8.75;5.15;;;;;;;;;;8227261;28;20778;-73
2021/08/29 23:14:27;;;;;;;6.55;4.25;;;;;;;;;;8193015;28;20475;-73
2021/08/29 23:18:32;;;;;;;10.30;4.43;;;;;;;;;;8209829;28;20372;-75
2021/08/29 23:22:38;;;;;;;10.27;4.47;;;;;;;;;;8225932;28;20488;-73
2021/08/29 23:26:42;;;;;;;9.95;4.82;;;;;;;;;;8208912;28;20461;-73
2021/08/29 23:30:47;;;;;;;5.75;4.18;;;;;;;;;;8210727;28;20464;-73
2021/08/29 23:34:52;;;;;;;6.18;3.42;;;;;;;;;;8225897;28;20037;-73
2021/08/29 23:38:57;;;;;;;7.15;3.45;;;;;;;;;;8209788;28;20487;-73
2021/08/29 23:43:03;;;;;;;4.63;3.55;;;;;;;;;;8226119;28;20371;-73
2021/08/29 23:47:08;;;;;;;6.72;3.40;;;;;;;;;;8225247;28;20496;-74
2021/08/29 23:51:13;;;;;;;6.47;4.15;;;;;;;;;;8208719;28;20488;-73
2021/08/29 23:55:20;;;;;;;12.18;5.32;;;;;;;;;;8208034;28;20377;-73
2021/08/29 23:59:25;;;;;;;8.93;4.90;;;;;;;;;;8208658;28;20376;-73
